createdAt,value
2018-04-27T00:00:04.417Z,3.53
2018-04-27T00:02:31.901Z,3.60
2018-04-27T00:04:59.447Z,3.10
2018-04-27T00:07:26.907Z,3.07
2018-04-27T00:09:54.392Z,3.53
2018-04-27T00:12:22.695Z,3.47
2018-04-27T00:14:50.179Z,2.90
2018-04-27T00:17:17.644Z,3.80
2018-04-27T00:19:45.137Z,4.33
2018-04-27T00:22:13.375Z,6.67
2018-04-27T00:24:40.862Z,6.97
2018-04-27T00:27:08.343Z,5.57
2018-04-27T00:29:35.827Z,5.50
2018-04-27T00:32:03.287Z,4.43
2018-04-27T00:34:30.786Z,4.03
2018-04-27T00:36:58.261Z,3.33
2018-04-27T00:39:26.549Z,2.50
2018-04-27T00:41:54.121Z,2.57
2018-04-27T00:44:21.644Z,2.30
2018-04-27T00:46:49.871Z,2.67
2018-04-27T00:49:17.359Z,2.40
2018-04-27T00:51:44.824Z,2.50
2018-04-27T00:54:12.309Z,2.87
2018-04-27T00:56:40.536Z,1.90
2018-04-27T00:59:08.007Z,2.43
2018-04-27T01:01:35.461Z,2.57
2018-04-27T01:04:02.940Z,2.20
2018-04-27T01:06:31.169Z,2.50
2018-04-27T01:08:58.648Z,3.07
2018-04-27T01:11:26.123Z,2.30
2018-04-27T01:13:53.592Z,2.67
2018-04-27T01:16:21.817Z,2.40
2018-04-27T01:18:49.296Z,2.53
2018-04-27T01:21:16.845Z,2.50
2018-04-27T01:23:44.318Z,2.60
2018-04-27T01:26:11.903Z,2.90
2018-04-27T01:28:40.145Z,2.60
2018-04-27T01:31:07.639Z,2.70
2018-04-27T01:33:35.876Z,3.27
2018-04-27T01:36:03.351Z,2.73
2018-04-27T01:38:30.828Z,2.83
2018-04-27T01:40:59.053Z,2.60
2018-04-27T01:43:26.523Z,3.10
2018-04-27T01:45:53.980Z,2.77
2018-04-27T01:48:21.441Z,2.80
2018-04-27T01:50:48.918Z,2.87
2018-04-27T01:53:17.164Z,2.90
2018-04-27T01:55:44.643Z,2.57
2018-04-27T01:58:12.120Z,3.43
2018-04-27T02:00:39.606Z,2.73
2018-04-27T02:03:07.068Z,2.50
2018-04-27T02:05:34.553Z,3.23
2018-04-27T02:08:02.007Z,3.13
2018-04-27T02:10:29.485Z,2.73
2018-04-27T02:12:57.027Z,2.63
2018-04-27T02:15:24.500Z,3.33
2018-04-27T02:17:51.956Z,3.90
2018-04-27T02:20:19.428Z,3.73
2018-04-27T02:22:46.884Z,3.20
2018-04-27T02:25:15.153Z,4.40
2018-04-27T02:27:43.387Z,3.80
2018-04-27T02:30:10.867Z,4.03
2018-04-27T02:32:38.335Z,3.63
2018-04-27T02:35:05.808Z,3.93
2018-04-27T02:37:33.279Z,2.77
2018-04-27T02:40:00.803Z,2.70
2018-04-27T02:42:29.085Z,2.83
2018-04-27T02:44:56.573Z,2.33
2018-04-27T02:47:24.036Z,2.83
2018-04-27T02:49:51.558Z,2.70
2018-04-27T02:52:19.015Z,2.63
2018-04-27T02:54:46.671Z,2.97
2018-04-27T02:57:14.134Z,2.80
2018-04-27T02:59:41.628Z,3.57
2018-04-27T03:02:09.107Z,4.07
2018-04-27T03:04:36.591Z,4.67
2018-04-27T03:07:04.060Z,4.57
2018-04-27T03:09:32.336Z,3.87
2018-04-27T03:12:00.602Z,3.40
2018-04-27T03:14:28.178Z,3.43
2018-04-27T03:16:55.630Z,3.60
2018-04-27T03:19:23.297Z,4.00
2018-04-27T03:21:50.759Z,3.50
2018-04-27T03:24:19.035Z,4.50
2018-04-27T03:26:47.268Z,3.50
2018-04-27T03:29:14.739Z,3.87
2018-04-27T03:31:42.221Z,4.07
2018-04-27T03:34:09.693Z,3.40
2018-04-27T03:36:37.935Z,3.57
2018-04-27T03:39:05.421Z,4.17
2018-04-27T03:41:33.674Z,3.53
2018-04-27T03:44:01.253Z,3.80
2018-04-27T03:46:29.475Z,3.30
2018-04-27T03:48:56.958Z,3.17
2018-04-27T03:51:25.924Z,3.53
2018-04-27T03:53:53.420Z,3.33
2018-04-27T03:56:20.889Z,3.47
2018-04-27T03:58:49.139Z,3.23
2018-04-27T04:01:28.568Z,3.50
2018-04-27T04:04:07.979Z,3.40
2018-04-27T04:06:35.495Z,3.10
2018-04-27T04:09:03.731Z,3.10
2018-04-27T04:11:31.208Z,3.10
2018-04-27T04:13:58.668Z,3.13
2018-04-27T04:16:26.152Z,2.60
2018-04-27T04:18:54.432Z,3.10
2018-04-27T04:21:22.668Z,2.60
2018-04-27T04:23:50.133Z,3.37
2018-04-27T04:26:17.616Z,2.80
2018-04-27T04:28:45.856Z,3.10
2018-04-27T04:31:13.348Z,2.90
2018-04-27T04:33:41.579Z,2.80
2018-04-27T04:36:09.085Z,2.87
2018-04-27T04:38:37.325Z,3.33
2018-04-27T04:41:04.791Z,3.30
2018-04-27T04:43:32.266Z,2.90
2018-04-27T04:46:00.529Z,3.27
2018-04-27T04:48:28.041Z,3.63
2018-04-27T04:50:55.514Z,2.97
2018-04-27T04:53:22.993Z,3.40
2018-04-27T04:55:50.483Z,3.40
2018-04-27T04:58:18.731Z,3.10
2018-04-27T05:00:46.993Z,3.70
2018-04-27T05:03:14.460Z,3.20
2018-04-27T05:05:41.936Z,3.70
2018-04-27T05:08:10.195Z,3.83
2018-04-27T05:10:37.757Z,3.13
2018-04-27T05:13:05.484Z,2.90
2018-04-27T05:15:32.980Z,2.73
2018-04-27T05:18:11.339Z,2.90
2018-04-27T05:20:38.821Z,2.80
2018-04-27T05:23:06.672Z,2.97
2018-04-27T05:25:34.174Z,2.97
2018-04-27T05:28:01.636Z,2.90
2018-04-27T05:30:30.255Z,2.70
2018-04-27T05:33:04.518Z,2.83
2018-04-27T05:35:32.008Z,2.83
2018-04-27T05:38:00.276Z,3.03
2018-04-27T05:40:28.516Z,3.23
2018-04-27T05:42:55.999Z,3.00
2018-04-27T05:45:24.274Z,3.63
2018-04-27T05:47:51.747Z,3.40
2018-04-27T05:50:20.002Z,3.07
2018-04-27T05:52:47.476Z,2.90
2018-04-27T05:55:15.760Z,3.67
2018-04-27T05:57:44.005Z,3.53
2018-04-27T06:00:11.495Z,3.30
2018-04-27T06:02:39.729Z,3.40
2018-04-27T06:05:07.241Z,3.90
2018-04-27T06:07:34.719Z,3.90
2018-04-27T06:10:02.441Z,4.17
2018-04-27T06:12:29.878Z,3.60
2018-04-27T06:14:57.717Z,3.80
2018-04-27T06:17:26.337Z,4.40
2018-04-27T06:19:53.912Z,4.63
2018-04-27T06:22:22.160Z,4.40
2018-04-27T06:24:49.754Z,3.90
2018-04-27T06:27:17.280Z,3.90
2018-04-27T06:29:44.765Z,4.27
2018-04-27T06:32:13.019Z,4.90
2018-04-27T06:34:40.628Z,4.13
2018-04-27T06:37:08.105Z,4.40
2018-04-27T06:39:35.564Z,4.80
2018-04-27T06:42:03.045Z,4.87
2018-04-27T06:44:32.037Z,5.17
2018-04-27T06:46:59.558Z,4.67
2018-04-27T06:49:27.024Z,5.20
2018-04-27T06:51:54.548Z,5.00
2018-04-27T06:54:22.055Z,5.30
2018-04-27T06:56:49.642Z,5.63
2018-04-27T06:59:17.962Z,5.70
2018-04-27T07:01:45.401Z,5.83
2018-04-27T07:04:12.883Z,6.37
2018-04-27T07:06:40.386Z,5.90
2018-04-27T07:09:08.647Z,5.80
2018-04-27T07:11:36.323Z,5.67
2018-04-27T07:14:03.802Z,5.87
2018-04-27T07:16:32.063Z,6.07
2018-04-27T07:19:00.311Z,6.37
2018-04-27T07:21:27.853Z,6.13
2018-04-27T07:23:55.339Z,5.80
2018-04-27T07:26:23.643Z,5.83
2018-04-27T07:28:52.031Z,6.17
2018-04-27T07:31:19.543Z,6.07
2018-04-27T07:33:47.025Z,5.90
2018-04-27T07:36:15.328Z,7.03
2018-04-27T07:38:42.804Z,6.47
2018-04-27T07:41:10.316Z,6.67
2018-04-27T07:43:37.808Z,6.23
2018-04-27T07:46:06.187Z,6.77
2018-04-27T07:48:33.712Z,6.00
2018-04-27T07:51:01.982Z,6.23
2018-04-27T07:53:30.242Z,5.60
2018-04-27T07:55:57.773Z,6.50
2018-04-27T07:58:25.248Z,6.03
2018-04-27T08:00:52.735Z,6.73
2018-04-27T08:03:20.991Z,6.83
2018-04-27T08:05:49.974Z,5.97
2018-04-27T08:08:17.439Z,6.60
2018-04-27T08:10:46.445Z,6.13
2018-04-27T08:13:13.909Z,5.97
2018-04-27T08:15:42.160Z,6.50
2018-04-27T08:18:09.631Z,5.60
2018-04-27T08:20:37.758Z,6.90
2018-04-27T08:23:05.234Z,6.10
2018-04-27T08:25:34.221Z,5.60
2018-04-27T08:28:01.701Z,6.00
2018-04-27T08:30:29.193Z,6.07
2018-04-27T08:32:57.427Z,5.27
2018-04-27T08:35:24.931Z,5.20
2018-04-27T08:37:52.410Z,4.80
2018-04-27T08:40:19.935Z,5.17
2018-04-27T08:42:48.189Z,5.80
2018-04-27T08:45:15.928Z,5.20
2018-04-27T08:47:43.417Z,5.30
2018-04-27T08:50:11.204Z,6.20
2018-04-27T08:52:38.700Z,5.30
2018-04-27T08:55:06.187Z,5.57
2018-04-27T08:57:33.674Z,4.93
2018-04-27T09:00:01.901Z,4.90
2018-04-27T09:02:29.444Z,4.27
2018-04-27T09:04:56.924Z,4.37
2018-04-27T09:07:24.453Z,4.47
2018-04-27T09:09:52.246Z,4.47
2018-04-27T09:12:19.803Z,3.83
2018-04-27T09:14:47.264Z,4.03
2018-04-27T09:17:14.743Z,4.00
2018-04-27T09:19:42.222Z,3.73
2018-04-27T09:22:10.510Z,3.47
2018-04-27T09:24:38.006Z,3.43
2018-04-27T09:27:05.487Z,3.60
2018-04-27T09:29:33.000Z,3.40
2018-04-27T09:32:00.490Z,3.40
2018-04-27T09:34:28.094Z,2.83
2018-04-27T09:36:55.615Z,2.57
2018-04-27T09:39:23.132Z,2.73
2018-04-27T09:41:50.608Z,3.10
2018-04-27T09:44:18.107Z,2.13
2018-04-27T09:46:46.344Z,2.07
2018-04-27T09:49:13.839Z,3.00
2018-04-27T09:51:42.068Z,2.20
2018-04-27T09:54:09.593Z,2.20
2018-04-27T09:56:37.076Z,2.00
2018-04-27T09:59:04.576Z,1.60
2018-04-27T10:01:32.052Z,2.10
2018-04-27T10:04:00.321Z,1.73
2018-04-27T10:06:28.552Z,3.30
2018-04-27T10:08:56.043Z,1.70
2018-04-27T10:11:24.279Z,2.07
2018-04-27T10:13:51.753Z,2.37
2018-04-27T10:16:19.249Z,2.23
2018-04-27T10:18:47.476Z,2.40
2018-04-27T10:21:14.963Z,2.63
2018-04-27T10:23:42.434Z,2.50
2018-04-27T10:26:10.719Z,2.17
2018-04-27T10:28:38.994Z,1.80
2018-04-27T10:31:07.280Z,1.93
2018-04-27T10:33:34.852Z,1.90
2018-04-27T10:36:02.272Z,2.50
2018-04-27T10:38:30.561Z,1.83
2018-04-27T10:40:58.839Z,2.63
2018-04-27T10:43:27.105Z,2.70
2018-04-27T10:45:55.355Z,2.20
2018-04-27T10:48:22.827Z,2.00
2018-04-27T10:50:50.316Z,2.40
2018-04-27T10:53:17.843Z,2.27
2018-04-27T10:55:45.351Z,2.10
2018-04-27T10:58:13.021Z,2.30
2018-04-27T11:00:40.511Z,2.20
2018-04-27T11:03:08.745Z,3.33
2018-04-27T11:05:36.297Z,2.73
2018-04-27T11:08:03.857Z,2.40
2018-04-27T11:10:31.384Z,2.30
2018-04-27T11:12:59.692Z,2.00
2018-04-27T11:15:27.155Z,2.47
2018-04-27T11:17:54.644Z,2.57
2018-04-27T11:20:22.268Z,1.80
2018-04-27T11:22:50.006Z,2.20
2018-04-27T11:25:17.519Z,2.60
2018-04-27T11:27:45.041Z,2.57
2018-04-27T11:30:12.502Z,2.27
2018-04-27T11:32:40.015Z,2.00
2018-04-27T11:35:07.539Z,2.23
2018-04-27T11:37:34.994Z,2.33
2018-04-27T11:40:02.459Z,2.10
2018-04-27T11:42:29.954Z,2.27
2018-04-27T11:44:57.453Z,2.10
2018-04-27T11:47:24.944Z,2.00
2018-04-27T11:49:52.431Z,2.20
2018-04-27T11:52:20.695Z,2.43
2018-04-27T11:54:48.934Z,2.37
2018-04-27T11:57:16.411Z,2.30
2018-04-27T11:59:43.895Z,2.50
2018-04-27T12:02:12.220Z,2.30
2018-04-27T12:04:39.729Z,2.10
2018-04-27T12:07:08.477Z,1.80
2018-04-27T12:09:35.983Z,1.87
2018-04-27T12:12:04.236Z,2.10
2018-04-27T12:14:31.741Z,2.10
2018-04-27T12:16:59.222Z,1.73
2018-04-27T12:19:26.708Z,2.00
2018-04-27T12:21:54.999Z,1.63
2018-04-27T12:24:23.255Z,2.00
2018-04-27T12:26:50.825Z,1.70
2018-04-27T12:29:18.303Z,1.97
2018-04-27T12:31:46.701Z,1.80
2018-04-27T12:34:14.140Z,2.17
2018-04-27T12:36:42.395Z,1.80
2018-04-27T12:39:09.887Z,1.70
2018-04-27T12:41:37.385Z,1.80
2018-04-27T12:44:04.980Z,2.00
2018-04-27T12:46:33.231Z,2.30
2018-04-27T12:49:00.714Z,1.80
2018-04-27T12:51:28.967Z,1.50
2018-04-27T12:53:56.433Z,1.60
2018-04-27T12:56:24.036Z,1.50
2018-04-27T12:58:51.502Z,1.90
2018-04-27T13:01:18.996Z,1.57
2018-04-27T13:03:47.297Z,1.73
2018-04-27T13:06:15.552Z,1.77
2018-04-27T13:08:43.023Z,1.73
2018-04-27T13:11:11.285Z,1.40
2018-04-27T13:13:38.859Z,1.63
2018-04-27T13:16:07.131Z,1.43
2018-04-27T13:18:34.619Z,1.30
2018-04-27T13:21:02.193Z,8.37
2018-04-27T13:23:29.657Z,1.47
2018-04-27T13:25:57.307Z,1.60
2018-04-27T13:28:24.817Z,1.50
2018-04-27T13:30:53.084Z,1.20
2018-04-27T13:33:20.597Z,1.33
2018-04-27T13:35:48.065Z,1.30
2018-04-27T13:38:15.586Z,1.70
2018-04-27T13:40:43.820Z,1.50
2018-04-27T13:43:11.315Z,1.57
2018-04-27T13:45:40.355Z,1.30
2018-04-27T13:48:07.847Z,1.30
2018-04-27T13:50:35.327Z,1.40
2018-04-27T13:53:03.612Z,1.70
2018-04-27T13:55:31.149Z,1.33
2018-04-27T13:58:00.164Z,1.67
2018-04-27T14:00:28.399Z,1.50
2018-04-27T14:02:55.966Z,1.20
2018-04-27T14:05:23.396Z,1.63
2018-04-27T14:07:50.909Z,1.57
2018-04-27T14:10:19.136Z,1.40
2018-04-27T14:12:46.608Z,1.00
2018-04-27T14:15:14.873Z,1.40
2018-04-27T14:17:42.344Z,1.77
2018-04-27T14:20:10.641Z,1.50
2018-04-27T14:22:38.949Z,1.40
2018-04-27T14:25:06.448Z,1.73
2018-04-27T14:27:33.909Z,1.30
2018-04-27T14:30:01.398Z,1.30
2018-04-27T14:32:30.257Z,1.83
2018-04-27T14:34:57.747Z,1.50
2018-04-27T14:37:25.955Z,1.67
2018-04-27T14:39:53.443Z,2.10
2018-04-27T14:42:20.905Z,1.70
2018-04-27T14:44:48.639Z,1.37
2018-04-27T14:47:16.941Z,1.60
2018-04-27T14:49:44.428Z,1.10
2018-04-27T14:52:12.675Z,1.93
2018-04-27T14:54:40.177Z,1.50
2018-04-27T14:57:07.644Z,1.50
2018-04-27T14:59:35.203Z,1.60
2018-04-27T15:04:25.351Z,1.50
2018-04-27T15:06:53.103Z,1.40
2018-04-27T15:09:20.579Z,1.27
2018-04-27T15:11:48.058Z,1.50
2018-04-27T15:14:15.581Z,1.50
2018-04-27T15:16:43.051Z,1.70
2018-04-27T15:19:10.536Z,1.90
2018-04-27T15:21:38.768Z,1.50
2018-04-27T15:24:06.286Z,1.63
2018-04-27T15:26:34.484Z,1.50
2018-04-27T15:29:01.994Z,1.77
2018-04-27T15:31:29.474Z,1.50
2018-04-27T15:33:56.963Z,1.67
2018-04-27T15:36:24.425Z,1.33
2018-04-27T15:38:51.922Z,1.40
2018-04-27T15:41:20.179Z,1.17
2018-04-27T15:43:47.690Z,1.17
2018-04-27T15:46:15.163Z,1.60
2018-04-27T15:48:43.087Z,1.83
2018-04-27T15:51:11.320Z,1.45
2018-04-27T15:53:38.810Z,1.75
2018-04-27T15:56:06.370Z,1.95
2018-04-27T15:58:33.878Z,1.83
2018-04-27T16:01:01.362Z,1.30
2018-04-27T16:03:28.844Z,1.90
2018-04-27T16:08:31.201Z,1.73
2018-04-27T16:10:58.683Z,1.65
2018-04-27T16:16:24.011Z,2.05
2018-04-27T16:18:51.493Z,1.50
2018-04-27T16:21:19.078Z,1.45
2018-04-27T16:23:46.582Z,1.55
2018-04-27T16:26:17.872Z,1.90
2018-04-27T16:28:45.367Z,2.10
2018-04-27T16:31:12.840Z,1.63
2018-04-27T16:33:40.411Z,1.50
2018-04-27T16:36:08.647Z,1.60
2018-04-27T16:38:36.372Z,1.97
2018-04-27T16:41:03.911Z,1.73
2018-04-27T16:43:32.320Z,1.70
2018-04-27T16:46:00.043Z,2.13
2018-04-27T16:48:28.546Z,3.07
2018-04-27T16:50:56.190Z,2.60
2018-04-27T16:53:24.509Z,2.00
2018-04-27T16:55:52.578Z,2.07
2018-04-27T16:58:20.104Z,2.70
2018-04-27T17:00:47.632Z,2.20
2018-04-27T17:03:15.142Z,2.23
2018-04-27T17:05:42.611Z,2.37
2018-04-27T17:08:10.161Z,2.00
2018-04-27T17:10:37.688Z,2.20
2018-04-27T17:13:05.948Z,4.20
2018-04-27T17:15:33.429Z,3.60
2018-04-27T17:18:01.684Z,2.37
2018-04-27T17:20:29.244Z,2.07
2018-04-27T17:22:56.720Z,1.60
2018-04-27T17:25:24.969Z,1.87
2018-04-27T17:27:52.489Z,2.17
2018-04-27T17:30:19.960Z,2.10
2018-04-27T17:32:47.538Z,2.17
2018-04-27T17:35:15.093Z,1.67
2018-04-27T17:37:43.299Z,2.13
2018-04-27T17:40:11.555Z,1.83
2018-04-27T17:42:39.132Z,2.10
2018-04-27T17:45:07.412Z,3.73
2018-04-27T17:47:35.719Z,11.53
2018-04-27T17:50:03.276Z,7.00
2018-04-27T17:52:30.738Z,3.27
2018-04-27T17:54:58.244Z,3.53
2018-04-27T17:57:25.759Z,2.00
2018-04-27T17:59:53.254Z,2.87
2018-04-27T18:02:20.824Z,2.60
2018-04-27T18:04:48.313Z,2.10
2018-04-27T18:07:15.767Z,2.10
2018-04-27T18:09:43.337Z,2.10
2018-04-27T18:12:10.903Z,1.70
2018-04-27T18:14:38.294Z,2.53
2018-04-27T18:17:05.773Z,2.30
2018-04-27T18:19:33.335Z,2.27
2018-04-27T18:22:01.607Z,2.90
2018-04-27T18:24:29.112Z,2.80
2018-04-27T18:26:56.580Z,2.33
2018-04-27T18:29:24.056Z,2.60
2018-04-27T18:31:51.532Z,3.73
2018-04-27T18:34:19.088Z,2.90
2018-04-27T18:36:47.323Z,3.10
2018-04-27T18:39:14.862Z,3.67
2018-04-27T18:41:43.071Z,3.10
2018-04-27T18:44:10.564Z,2.80
2018-04-27T18:46:38.806Z,3.30
2018-04-27T18:49:06.403Z,2.93
2018-04-27T18:51:35.766Z,4.43
2018-04-27T18:54:04.054Z,6.30
2018-04-27T18:56:31.536Z,5.30
2018-04-27T18:58:59.783Z,4.27
2018-04-27T19:01:27.271Z,4.80
2018-04-27T19:03:55.783Z,4.77
2018-04-27T19:06:24.065Z,4.07
2018-04-27T19:08:51.622Z,4.50
2018-04-27T19:11:19.838Z,4.03
2018-04-27T19:13:47.315Z,4.13
2018-04-27T19:16:15.546Z,3.67
2018-04-27T19:18:43.023Z,4.87
2018-04-27T19:21:10.511Z,4.57
2018-04-27T19:23:38.786Z,5.77
2018-04-27T19:26:07.963Z,4.83
2018-04-27T19:28:35.472Z,4.17
2018-04-27T19:31:03.682Z,4.37
2018-04-27T19:33:32.027Z,5.90
2018-04-27T19:35:59.530Z,6.60
2018-04-27T19:38:27.042Z,5.73
2018-04-27T19:40:54.529Z,3.90
2018-04-27T19:43:22.018Z,3.63
2018-04-27T19:45:50.333Z,3.63
2018-04-27T19:48:17.814Z,3.87
2018-04-27T19:50:45.303Z,3.60
2018-04-27T19:53:12.766Z,3.93
2018-04-27T19:55:41.024Z,3.83
2018-04-27T19:58:08.525Z,3.90
2018-04-27T20:00:36.878Z,4.23
2018-04-27T20:03:05.122Z,4.10
2018-04-27T20:05:32.596Z,4.47
2018-04-27T20:08:00.068Z,4.70
2018-04-27T20:10:31.840Z,4.73
2018-04-27T20:13:00.080Z,5.30
2018-04-27T20:15:38.516Z,4.90
2018-04-27T20:18:07.772Z,6.07
2018-04-27T20:20:35.989Z,4.40
2018-04-27T20:23:06.868Z,4.90
2018-04-27T20:25:34.365Z,4.73
2018-04-27T20:28:02.599Z,4.30
2018-04-27T20:30:30.974Z,4.57
2018-04-27T20:32:58.507Z,4.13
2018-04-27T20:35:26.759Z,4.30
2018-04-27T20:37:55.196Z,4.33
2018-04-27T20:40:25.517Z,4.47
2018-04-27T20:42:52.988Z,4.50
2018-04-27T20:45:20.487Z,4.63
2018-04-27T20:47:47.943Z,4.77
2018-04-27T20:50:15.431Z,4.30
2018-04-27T20:52:42.930Z,5.33
2018-04-27T20:55:14.827Z,5.53
2018-04-27T20:57:43.072Z,4.87
2018-04-27T21:00:10.599Z,4.43
2018-04-27T21:02:38.106Z,3.93
2018-04-27T21:05:05.583Z,3.53
2018-04-27T21:07:33.813Z,3.83
2018-04-27T21:10:01.325Z,3.40
2018-04-27T21:12:28.795Z,4.20
2018-04-27T21:14:56.281Z,4.23
2018-04-27T21:17:23.753Z,4.00
2018-04-27T21:19:51.232Z,4.47
2018-04-27T21:22:19.477Z,4.27
2018-04-27T21:24:46.977Z,3.73
2018-04-27T21:27:15.204Z,3.53
2018-04-27T21:29:42.781Z,3.50
2018-04-27T21:32:11.005Z,3.43
2018-04-27T21:34:38.543Z,3.60
2018-04-27T21:37:06.824Z,3.47
2018-04-27T21:39:35.236Z,3.10
2018-04-27T21:42:06.409Z,3.67
2018-04-27T21:44:38.806Z,3.50
2018-04-27T21:50:07.113Z,3.97
2018-04-27T21:52:44.241Z,4.50
2018-04-27T21:55:11.977Z,4.23
2018-04-27T21:57:40.667Z,4.50
2018-04-27T22:00:27.295Z,4.30
2018-04-27T22:06:03.762Z,4.63
2018-04-27T22:08:32.013Z,4.40
2018-04-27T22:13:57.307Z,4.57
2018-04-27T22:19:16.995Z,4.33
2018-04-27T22:21:44.485Z,4.27
2018-04-27T22:24:14.668Z,4.87
2018-04-27T22:26:45.185Z,4.70
2018-04-27T22:29:23.651Z,4.53
2018-04-27T22:31:57.895Z,4.90
2018-04-27T22:34:28.329Z,4.70
2018-04-27T22:36:56.416Z,4.87
2018-04-27T22:39:43.620Z,5.13
2018-04-27T22:42:12.043Z,4.30
2018-04-27T22:44:44.027Z,3.53
2018-04-27T22:47:13.221Z,3.40
2018-04-27T22:49:41.458Z,3.83
2018-04-27T22:52:08.939Z,2.80
2018-04-27T22:54:39.381Z,2.87
2018-04-27T22:57:09.336Z,2.07
2018-04-27T22:59:36.849Z,2.50
2018-04-27T23:02:05.158Z,2.60
2018-04-27T23:04:32.623Z,2.37
2018-04-27T23:07:00.127Z,2.43
2018-04-27T23:09:27.805Z,2.30
2018-04-27T23:11:56.077Z,2.30
2018-04-27T23:14:31.133Z,2.43
2018-04-27T23:16:58.625Z,2.57
2018-04-27T23:19:26.905Z,3.00
2018-04-27T23:22:02.840Z,2.73
2018-04-27T23:24:33.061Z,2.53
2018-04-27T23:27:01.407Z,2.40
2018-04-27T23:29:28.810Z,2.40
2018-04-27T23:31:56.352Z,2.50
2018-04-27T23:34:23.824Z,2.60
2018-04-27T23:36:51.310Z,2.30
2018-04-27T23:39:18.824Z,2.30
2018-04-27T23:41:46.313Z,2.70
2018-04-27T23:44:13.780Z,2.50
2018-04-27T23:46:41.261Z,2.47
2018-04-27T23:49:08.724Z,2.90
2018-04-27T23:51:36.993Z,2.57
2018-04-27T23:54:07.863Z,2.57
2018-04-27T23:56:36.945Z,2.57
2018-04-27T23:59:05.201Z,2.57
